Arendahl, Minnesota
Current Conditions -  °F | °C
As of 5:15 AM on Wednesday 26 Nov 2014 (Local Time) from KFKA Reporting Station
Overcast Overcast  
Wind Chill: -11°   Ceiling: 7000
Heat Index: -7°   Visibility: 10mi
Dew Point: -9°   Wind: 5mph
Humidity: 89%   Direction: 120°ESE
Pressure: 30.01"   Gusts: NA
Location:  43.7298°N, 91.8267°W
Report Text: KFKA 261115Z AUTO 12004KT 10SM OVC070 M07/M09 A3001 RMK AO2 T10701086
Loading
Personal Weather Stations






























Interactive Weather Map New forecast layout! Learn more

10-Day Weather Forecast

Advertisements
Track Severe Weather on mobile